createdAt,value
2018-02-18T00:00:08.241Z,2.25
2018-02-18T00:02:33.995Z,2.03
2018-02-18T00:04:59.739Z,2.16
2018-02-18T00:07:25.497Z,2.07
2018-02-18T00:09:51.247Z,1.99
2018-02-18T00:12:17.000Z,2.12
2018-02-18T00:14:44.560Z,2.05
2018-02-18T00:17:10.304Z,2.05
2018-02-18T00:19:36.063Z,1.96
2018-02-18T00:22:01.827Z,2.03
2018-02-18T00:24:27.609Z,2.13
2018-02-18T00:26:53.359Z,2.02
2018-02-18T00:29:19.124Z,1.92
2018-02-18T00:31:44.880Z,1.97
2018-02-18T00:34:10.655Z,2.00
2018-02-18T00:36:36.408Z,2.14
2018-02-18T00:39:02.170Z,2.00
2018-02-18T00:41:27.933Z,1.92
2018-02-18T00:43:53.691Z,1.83
2018-02-18T00:46:19.448Z,1.83
2018-02-18T00:48:45.207Z,1.80
2018-02-18T00:51:10.969Z,1.65
2018-02-18T00:53:36.747Z,1.68
2018-02-18T00:56:02.493Z,1.74
2018-02-18T00:58:28.245Z,1.78
2018-02-18T01:00:54.008Z,1.80
2018-02-18T01:03:19.771Z,1.76
2018-02-18T01:05:45.540Z,1.62
2018-02-18T01:08:11.301Z,1.47
2018-02-18T01:10:37.072Z,1.46
2018-02-18T01:13:02.820Z,1.46
2018-02-18T01:15:28.575Z,1.46
2018-02-18T01:17:54.339Z,1.24
2018-02-18T01:20:20.118Z,1.05
2018-02-18T01:22:45.894Z,0.96
2018-02-18T01:25:11.676Z,0.86
2018-02-18T01:27:37.428Z,0.83
2018-02-18T01:30:03.217Z,0.78
2018-02-18T01:32:28.990Z,0.63
2018-02-18T01:34:54.775Z,0.86
2018-02-18T01:37:20.518Z,0.86
2018-02-18T01:39:46.308Z,0.93
2018-02-18T01:42:12.085Z,0.83
2018-02-18T01:44:37.865Z,0.83
2018-02-18T01:47:03.628Z,0.67
2018-02-18T01:49:29.395Z,0.64
2018-02-18T01:51:55.200Z,0.39
2018-02-18T01:54:20.963Z,0.42
2018-02-18T01:56:46.744Z,0.34
2018-02-18T01:59:12.503Z,0.18
2018-02-18T02:01:38.287Z,0.26
2018-02-18T02:04:04.071Z,0.26
2018-02-18T02:06:29.851Z,0.22
2018-02-18T02:08:55.591Z,0.28
2018-02-18T02:11:21.355Z,0.31
2018-02-18T02:13:47.107Z,0.33
2018-02-18T02:16:12.882Z,0.08
2018-02-18T02:18:38.636Z,-0.02
2018-02-18T02:21:04.398Z,0.04
2018-02-18T02:23:30.152Z,0.04
2018-02-18T02:25:55.919Z,0.02
2018-02-18T02:28:21.664Z,-0.16
2018-02-18T02:30:47.442Z,-0.25
2018-02-18T02:33:13.196Z,-0.23
2018-02-18T02:35:38.943Z,-0.27
2018-02-18T02:38:04.724Z,-0.33
2018-02-18T02:40:30.480Z,-0.45
2018-02-18T02:42:56.254Z,-0.54
2018-02-18T02:45:22.010Z,-0.44
2018-02-18T02:47:47.779Z,-0.41
2018-02-18T02:50:13.535Z,-0.45
2018-02-18T02:52:39.319Z,-0.43
2018-02-18T02:55:05.064Z,-0.45
2018-02-18T02:57:30.849Z,-0.60
2018-02-18T02:59:56.592Z,-0.64
2018-02-18T03:02:22.367Z,-0.60
2018-02-18T03:04:48.120Z,-0.59
2018-02-18T03:07:13.887Z,-0.65
2018-02-18T03:09:39.634Z,-0.62
2018-02-18T03:12:05.395Z,-0.66
2018-02-18T03:14:31.143Z,-0.64
2018-02-18T03:16:56.903Z,-0.69
2018-02-18T03:19:22.651Z,-0.79
2018-02-18T03:21:48.403Z,-0.76
2018-02-18T03:24:14.167Z,-0.74
2018-02-18T03:26:39.911Z,-0.75
2018-02-18T03:29:05.674Z,-0.75
2018-02-18T03:31:31.421Z,-0.77
2018-02-18T03:33:57.167Z,-0.81
2018-02-18T03:36:22.923Z,-0.86
2018-02-18T03:38:48.695Z,-0.86
2018-02-18T03:41:14.451Z,-0.85
2018-02-18T03:43:40.213Z,-0.89
2018-02-18T03:46:05.967Z,-0.91
2018-02-18T03:48:33.207Z,-1.01
2018-02-18T03:50:59.018Z,-1.12
2018-02-18T03:53:24.780Z,-1.17
2018-02-18T03:55:50.522Z,-1.16
2018-02-18T03:58:16.300Z,-1.10
2018-02-18T04:00:42.039Z,-1.16
2018-02-18T04:03:07.798Z,-1.18
2018-02-18T04:05:33.554Z,-1.20
2018-02-18T04:07:59.307Z,-1.21
2018-02-18T04:10:25.065Z,-1.26
2018-02-18T04:12:50.802Z,-1.31
2018-02-18T04:15:16.566Z,-1.36
2018-02-18T04:17:42.312Z,-1.39
2018-02-18T04:20:08.073Z,-1.59
2018-02-18T04:22:33.829Z,-1.65
2018-02-18T04:24:59.584Z,-1.47
2018-02-18T04:27:25.315Z,-1.46
2018-02-18T04:29:51.077Z,-1.43
2018-02-18T04:32:16.835Z,-1.62
2018-02-18T04:34:42.593Z,-1.87
2018-02-18T04:37:08.349Z,-1.73
2018-02-18T04:39:34.111Z,-1.52
2018-02-18T04:41:59.861Z,-1.49
2018-02-18T04:44:25.627Z,-1.37
2018-02-18T04:46:51.371Z,-1.42
2018-02-18T04:49:17.138Z,-1.34
2018-02-18T04:51:42.887Z,-1.41
2018-02-18T04:54:08.640Z,-1.34
2018-02-18T04:56:34.412Z,-1.31
2018-02-18T04:59:00.163Z,-1.27
2018-02-18T05:01:25.923Z,-1.39
2018-02-18T05:03:51.674Z,-1.37
2018-02-18T05:06:17.441Z,-1.20
2018-02-18T05:08:43.190Z,-1.23
2018-02-18T05:11:08.951Z,-1.16
2018-02-18T05:13:34.717Z,-1.11
2018-02-18T05:18:42.391Z,-1.17
2018-02-18T05:21:08.147Z,-1.13
2018-02-18T05:23:33.898Z,-1.08
2018-02-18T05:25:59.655Z,-1.03
2018-02-18T05:28:25.420Z,-1.01
2018-02-18T05:30:51.183Z,-0.95
2018-02-18T05:33:16.951Z,-0.79
2018-02-18T05:35:42.736Z,-0.65
2018-02-18T05:38:08.486Z,-0.61
2018-02-18T05:40:34.247Z,-0.54
2018-02-18T05:43:00.009Z,-0.44
2018-02-18T05:45:25.762Z,-0.32
2018-02-18T05:47:51.524Z,-0.25
2018-02-18T05:50:17.268Z,-0.21
2018-02-18T05:52:43.028Z,-0.16
2018-02-18T05:55:08.785Z,-0.08
2018-02-18T05:57:34.564Z,-0.05
2018-02-18T06:00:00.315Z,0.03
2018-02-18T06:02:26.100Z,-0.03
2018-02-18T06:04:51.844Z,-0.05
2018-02-18T06:07:17.604Z,0.07
2018-02-18T06:09:43.359Z,0.04
2018-02-18T06:12:09.137Z,0.06
2018-02-18T06:14:34.899Z,0.08
2018-02-18T06:17:00.686Z,0.13
2018-02-18T06:19:26.436Z,0.10
2018-02-18T06:21:52.203Z,0.09
2018-02-18T06:24:17.983Z,0.10
2018-02-18T06:26:43.741Z,0.16
2018-02-18T06:29:09.513Z,0.12
2018-02-18T06:31:35.268Z,0.18
2018-02-18T06:34:01.035Z,0.20
2018-02-18T06:36:26.792Z,0.12
2018-02-18T06:38:52.559Z,0.15
2018-02-18T06:41:18.323Z,0.14
2018-02-18T06:43:44.135Z,0.19
2018-02-18T06:46:09.875Z,0.23
2018-02-18T06:48:35.632Z,0.25
2018-02-18T06:51:01.391Z,0.31
2018-02-18T06:53:27.159Z,0.34
2018-02-18T06:55:52.965Z,0.34
2018-02-18T06:58:18.683Z,0.40
2018-02-18T07:00:44.440Z,0.41
2018-02-18T07:03:10.196Z,0.43
2018-02-18T07:05:35.965Z,0.51
2018-02-18T07:08:01.713Z,0.56
2018-02-18T07:10:27.480Z,0.60
2018-02-18T07:12:53.231Z,0.64
2018-02-18T07:15:19.004Z,0.67
2018-02-18T07:17:44.763Z,0.71
2018-02-18T07:20:10.527Z,0.70
2018-02-18T07:22:36.285Z,0.73
2018-02-18T07:25:02.060Z,0.79
2018-02-18T07:27:27.816Z,0.86
2018-02-18T07:29:53.581Z,0.87
2018-02-18T07:32:19.348Z,0.90
2018-02-18T07:34:45.119Z,0.92
2018-02-18T07:37:10.864Z,0.98
2018-02-18T07:39:36.628Z,0.98
2018-02-18T07:42:02.395Z,1.02
2018-02-18T07:44:28.148Z,1.01
2018-02-18T07:46:53.916Z,1.05
2018-02-18T07:49:19.672Z,1.06
2018-02-18T07:51:45.421Z,1.11
2018-02-18T07:54:11.179Z,1.13
2018-02-18T07:56:36.963Z,1.22
2018-02-18T08:01:33.091Z,1.33
2018-02-18T08:03:58.852Z,1.40
2018-02-18T08:06:24.618Z,1.42
2018-02-18T08:08:50.391Z,1.49
2018-02-18T08:11:16.158Z,1.56
2018-02-18T08:13:41.917Z,1.56
2018-02-18T08:16:07.700Z,1.64
2018-02-18T08:18:33.450Z,1.63
2018-02-18T08:20:59.232Z,1.65
2018-02-18T08:23:24.989Z,1.76
2018-02-18T08:25:50.770Z,1.85
2018-02-18T08:28:16.522Z,2.03
2018-02-18T08:30:42.312Z,2.16
2018-02-18T08:33:08.084Z,2.27
2018-02-18T08:35:33.854Z,2.38
2018-02-18T08:37:59.629Z,2.48
2018-02-18T08:40:25.395Z,2.53
2018-02-18T08:42:51.160Z,2.58
2018-02-18T08:45:16.920Z,2.79
2018-02-18T08:47:42.706Z,2.82
2018-02-18T08:50:08.460Z,2.74
2018-02-18T08:52:34.270Z,2.90
2018-02-18T08:55:00.013Z,2.94
2018-02-18T08:57:25.792Z,3.00
2018-02-18T08:59:51.564Z,3.09
2018-02-18T09:02:17.343Z,3.14
2018-02-18T09:04:43.104Z,3.09
2018-02-18T09:07:08.875Z,3.07
2018-02-18T09:09:34.633Z,3.19
2018-02-18T09:12:00.407Z,3.30
2018-02-18T09:14:26.173Z,3.34
2018-02-18T09:16:51.959Z,3.41
2018-02-18T09:19:17.730Z,3.51
2018-02-18T09:21:43.500Z,3.60
2018-02-18T09:24:09.276Z,3.74
2018-02-18T09:26:35.052Z,3.71
2018-02-18T09:29:00.832Z,3.70
2018-02-18T09:31:26.603Z,3.96
2018-02-18T09:33:52.379Z,3.91
2018-02-18T09:36:18.140Z,3.81
2018-02-18T09:38:43.912Z,4.03
2018-02-18T09:41:09.671Z,4.16
2018-02-18T09:43:36.967Z,4.42
2018-02-18T09:46:02.760Z,4.36
2018-02-18T09:48:28.548Z,4.33
2018-02-18T09:50:54.303Z,4.32
2018-02-18T09:53:20.083Z,4.59
2018-02-18T09:55:45.840Z,4.82
2018-02-18T09:58:11.620Z,4.77
2018-02-18T10:00:37.381Z,4.85
2018-02-18T10:03:03.155Z,4.76
2018-02-18T10:05:28.936Z,4.88
2018-02-18T10:07:54.707Z,5.17
2018-02-18T10:10:20.488Z,5.31
2018-02-18T10:12:46.243Z,4.87
2018-02-18T10:15:12.014Z,4.85
2018-02-18T10:17:37.779Z,5.11
2018-02-18T10:20:03.641Z,5.23
2018-02-18T10:22:29.417Z,5.32
2018-02-18T10:24:55.221Z,5.58
2018-02-18T10:27:21.009Z,5.68
2018-02-18T10:29:46.783Z,5.57
2018-02-18T10:32:12.555Z,5.73
2018-02-18T10:34:38.355Z,5.70
2018-02-18T10:37:04.127Z,5.57
2018-02-18T10:39:29.920Z,5.56
2018-02-18T10:41:55.702Z,5.71
2018-02-18T10:44:21.484Z,5.77
2018-02-18T10:46:47.271Z,5.73
2018-02-18T10:49:13.085Z,5.38
2018-02-18T10:51:38.877Z,5.27
2018-02-18T10:54:04.655Z,5.25
2018-02-18T10:56:30.430Z,5.64
2018-02-18T10:58:56.207Z,5.75
2018-02-18T11:01:21.980Z,5.56
2018-02-18T11:03:47.752Z,5.52
2018-02-18T11:06:13.532Z,5.49
2018-02-18T11:08:39.294Z,5.59
2018-02-18T11:11:05.078Z,5.91
2018-02-18T11:13:30.840Z,5.81
2018-02-18T11:15:56.615Z,5.54
2018-02-18T11:18:22.405Z,5.71
2018-02-18T11:20:48.202Z,5.77
2018-02-18T11:23:13.951Z,5.79
2018-02-18T11:25:39.742Z,5.87
2018-02-18T11:28:05.549Z,5.73
2018-02-18T11:30:31.389Z,5.59
2018-02-18T11:32:57.201Z,5.25
2018-02-18T11:35:24.174Z,5.11
2018-02-18T11:37:49.948Z,5.14
2018-02-18T11:40:15.719Z,5.19
2018-02-18T11:42:41.496Z,5.06
2018-02-18T11:45:07.328Z,5.19
2018-02-18T11:47:33.318Z,5.32
2018-02-18T11:49:59.088Z,5.64
2018-02-18T11:52:24.884Z,5.65
2018-02-18T11:54:50.646Z,5.77
2018-02-18T11:57:16.472Z,5.97
2018-02-18T11:59:42.222Z,5.88
2018-02-18T12:02:08.804Z,6.24
2018-02-18T12:04:34.611Z,6.27
2018-02-18T12:07:00.403Z,6.31
2018-02-18T12:09:26.168Z,6.05
2018-02-18T12:11:51.993Z,6.29
2018-02-18T12:14:17.751Z,6.24
2018-02-18T12:16:43.543Z,6.16
2018-02-18T12:19:09.393Z,6.26
2018-02-18T12:21:35.251Z,6.37
2018-02-18T12:24:01.027Z,6.44
2018-02-18T12:26:26.903Z,6.49
2018-02-18T12:28:52.665Z,6.58
2018-02-18T12:31:18.495Z,6.79
2018-02-18T12:33:44.260Z,6.35
2018-02-18T12:36:10.047Z,6.33
2018-02-18T12:38:36.160Z,6.33
2018-02-18T12:41:01.948Z,6.30
2018-02-18T12:43:27.753Z,6.42
2018-02-18T12:45:53.519Z,6.36
2018-02-18T12:48:19.455Z,6.47
2018-02-18T12:50:45.399Z,6.36
2018-02-18T12:53:11.225Z,6.23
2018-02-18T12:55:36.999Z,6.39
2018-02-18T12:58:02.795Z,6.52
2018-02-18T13:00:28.595Z,6.19
2018-02-18T13:02:54.364Z,6.34
2018-02-18T13:05:20.202Z,6.40
2018-02-18T13:07:45.976Z,6.28
2018-02-18T13:10:11.769Z,6.28
2018-02-18T13:12:37.541Z,6.42
2018-02-18T13:15:03.324Z,6.53
2018-02-18T13:17:29.096Z,6.36
2018-02-18T13:19:54.872Z,6.04
2018-02-18T13:22:20.647Z,5.99
2018-02-18T13:24:46.442Z,6.11
2018-02-18T13:27:12.213Z,6.02
2018-02-18T13:29:37.986Z,6.34
2018-02-18T13:32:03.757Z,6.22
2018-02-18T13:34:29.540Z,6.34
2018-02-18T13:36:55.318Z,6.41
2018-02-18T13:39:21.106Z,6.39
2018-02-18T13:41:46.879Z,6.47
2018-02-18T13:44:12.652Z,6.21
2018-02-18T13:46:38.444Z,6.27
2018-02-18T13:49:04.212Z,6.21
2018-02-18T13:51:29.984Z,6.12
2018-02-18T13:53:55.780Z,5.87
2018-02-18T13:56:21.544Z,5.97
2018-02-18T13:58:47.319Z,5.89
2018-02-18T14:01:13.096Z,5.83
2018-02-18T14:03:38.870Z,5.87
2018-02-18T14:06:04.655Z,5.74
2018-02-18T14:08:30.431Z,5.87
2018-02-18T14:10:56.208Z,5.94
2018-02-18T14:13:22.035Z,5.97
2018-02-18T14:15:47.899Z,5.87
2018-02-18T14:18:13.678Z,5.87
2018-02-18T14:20:39.456Z,5.97
2018-02-18T14:23:05.290Z,6.01
2018-02-18T14:25:31.055Z,5.95
2018-02-18T14:27:56.824Z,5.90
2018-02-18T14:30:22.603Z,5.77
2018-02-18T14:32:48.357Z,5.77
2018-02-18T14:35:14.161Z,5.77
2018-02-18T14:37:39.920Z,5.76
2018-02-18T14:40:05.711Z,5.75
2018-02-18T14:42:43.812Z,5.62
2018-02-18T14:45:22.137Z,5.58
2018-02-18T14:48:00.307Z,5.55
2018-02-18T14:50:38.359Z,5.49
2018-02-18T14:53:16.471Z,5.53
2018-02-18T14:55:54.529Z,5.50
2018-02-18T14:58:20.276Z,5.44
2018-02-18T15:00:46.045Z,5.31
2018-02-18T15:03:11.808Z,5.20
2018-02-18T15:05:37.579Z,5.20
2018-02-18T15:08:03.344Z,5.17
2018-02-18T15:10:29.123Z,5.19
2018-02-18T15:12:55.420Z,5.14
2018-02-18T15:15:21.170Z,5.13
2018-02-18T15:17:46.936Z,5.02
2018-02-18T15:20:12.697Z,4.97
2018-02-18T15:22:38.487Z,4.98
2018-02-18T15:25:04.238Z,4.88
2018-02-18T15:27:30.004Z,4.81
2018-02-18T15:29:55.775Z,4.82
2018-02-18T15:32:21.562Z,4.80
2018-02-18T15:34:47.311Z,4.79
2018-02-18T15:37:13.076Z,4.76
2018-02-18T15:39:38.835Z,4.71
2018-02-18T15:42:04.614Z,4.66
2018-02-18T15:44:30.371Z,4.64
2018-02-18T15:46:56.192Z,4.58
2018-02-18T15:49:21.915Z,4.56
2018-02-18T15:51:47.695Z,4.52
2018-02-18T15:54:13.456Z,4.45
2018-02-18T15:56:39.223Z,4.34
2018-02-18T15:59:04.993Z,4.30
2018-02-18T16:01:30.767Z,4.28
2018-02-18T16:03:56.528Z,4.23
2018-02-18T16:06:22.302Z,4.19
2018-02-18T16:08:48.064Z,4.16
2018-02-18T16:11:13.836Z,4.10
2018-02-18T16:13:39.595Z,4.15
2018-02-18T16:16:05.383Z,4.10
2018-02-18T16:18:31.136Z,4.07
2018-02-18T16:20:56.904Z,3.96
2018-02-18T16:23:22.686Z,3.90
2018-02-18T16:25:48.428Z,3.80
2018-02-18T16:28:14.196Z,3.80
2018-02-18T16:30:39.957Z,3.61
2018-02-18T16:33:05.724Z,3.53
2018-02-18T16:35:31.478Z,3.44
2018-02-18T16:37:57.247Z,3.38
2018-02-18T16:40:23.015Z,3.39
2018-02-18T16:42:48.821Z,3.25
2018-02-18T16:45:14.568Z,3.18
2018-02-18T16:47:40.512Z,3.12
2018-02-18T16:50:06.264Z,3.02
2018-02-18T16:52:32.032Z,2.93
2018-02-18T16:54:57.788Z,2.78
2018-02-18T16:57:23.572Z,2.73
2018-02-18T16:59:49.329Z,2.80
2018-02-18T17:02:15.088Z,2.81
2018-02-18T17:04:40.877Z,2.78
2018-02-18T17:07:06.634Z,2.76
2018-02-18T17:09:32.395Z,2.73
2018-02-18T17:11:58.147Z,2.58
2018-02-18T17:14:23.917Z,2.41
2018-02-18T17:16:49.663Z,2.44
2018-02-18T17:19:15.419Z,2.32
2018-02-18T17:21:41.174Z,2.25
2018-02-18T17:24:06.952Z,2.22
2018-02-18T17:26:32.720Z,2.17
2018-02-18T17:28:58.490Z,2.26
2018-02-18T17:31:24.262Z,2.33
2018-02-18T17:33:50.034Z,2.09
2018-02-18T17:36:15.780Z,2.05
2018-02-18T17:38:41.563Z,1.93
2018-02-18T17:41:07.314Z,1.96
2018-02-18T17:43:33.085Z,2.00
2018-02-18T17:45:58.851Z,2.12
2018-02-18T17:48:24.611Z,2.04
2018-02-18T17:50:50.376Z,2.10
2018-02-18T17:53:16.135Z,1.78
2018-02-18T17:55:41.904Z,1.83
2018-02-18T17:58:07.655Z,1.76
2018-02-18T18:00:33.424Z,1.74
2018-02-18T18:02:59.216Z,1.67
2018-02-18T18:05:24.944Z,1.68
2018-02-18T18:07:50.693Z,1.75
2018-02-18T18:10:16.454Z,1.64
2018-02-18T18:12:42.253Z,1.61
2018-02-18T18:15:07.980Z,1.45
2018-02-18T18:17:33.727Z,1.13
2018-02-18T18:19:59.511Z,1.07
2018-02-18T18:22:25.264Z,1.06
2018-02-18T18:24:51.039Z,1.16
2018-02-18T18:27:16.783Z,1.26
2018-02-18T18:29:42.519Z,1.11
2018-02-18T18:32:08.293Z,1.04
2018-02-18T18:34:34.043Z,1.09
2018-02-18T18:36:59.815Z,0.84
2018-02-18T18:39:25.581Z,0.70
2018-02-18T18:41:51.351Z,0.68
2018-02-18T18:44:17.105Z,0.55
2018-02-18T18:46:42.875Z,0.51
2018-02-18T18:49:08.616Z,0.56
2018-02-18T18:51:34.368Z,0.67
2018-02-18T18:54:00.116Z,0.79
2018-02-18T18:56:25.878Z,0.94
2018-02-18T18:58:51.652Z,0.76
2018-02-18T19:01:17.420Z,0.67
2018-02-18T19:03:43.185Z,0.78
2018-02-18T19:06:08.951Z,1.07
2018-02-18T19:08:34.706Z,1.18
2018-02-18T19:11:00.483Z,1.22
2018-02-18T19:13:26.244Z,1.23
2018-02-18T19:15:52.003Z,1.16
2018-02-18T19:18:17.783Z,1.22
2018-02-18T19:20:43.543Z,1.27
2018-02-18T19:23:09.308Z,1.25
2018-02-18T19:25:35.063Z,1.18
2018-02-18T19:28:00.839Z,1.13
2018-02-18T19:30:26.619Z,1.09
2018-02-18T19:32:52.387Z,1.17
2018-02-18T19:35:18.145Z,1.26
2018-02-18T19:37:43.924Z,1.35
2018-02-18T19:40:09.672Z,1.38
2018-02-18T19:42:35.449Z,1.47
2018-02-18T19:45:01.220Z,1.52
2018-02-18T19:47:26.983Z,1.70
2018-02-18T19:49:52.752Z,1.59
2018-02-18T19:52:18.528Z,1.55
2018-02-18T19:54:44.269Z,1.64
2018-02-18T19:57:10.044Z,1.67
2018-02-18T19:59:35.811Z,1.74
2018-02-18T20:02:02.495Z,1.80
2018-02-18T20:04:28.270Z,1.74
2018-02-18T20:06:54.012Z,1.80
2018-02-18T20:09:19.761Z,1.86
2018-02-18T20:11:45.527Z,1.79
2018-02-18T20:14:11.299Z,1.68
2018-02-18T20:16:37.046Z,1.66
2018-02-18T20:19:02.806Z,1.67
2018-02-18T20:21:28.565Z,1.68
2018-02-18T20:23:54.343Z,1.62
2018-02-18T20:26:20.111Z,1.60
2018-02-18T20:28:45.886Z,1.65
2018-02-18T20:31:11.643Z,1.79
2018-02-18T20:33:37.423Z,1.74
2018-02-18T20:36:03.186Z,1.76
2018-02-18T20:38:28.975Z,1.78
2018-02-18T20:40:54.762Z,1.85
2018-02-18T20:43:20.566Z,1.84
2018-02-18T20:45:46.348Z,1.88
2018-02-18T20:48:12.108Z,1.78
2018-02-18T20:50:37.893Z,1.80
2018-02-18T20:53:03.658Z,1.83
2018-02-18T20:55:29.431Z,1.85
2018-02-18T20:57:55.204Z,1.85
2018-02-18T21:00:20.989Z,1.90
2018-02-18T21:02:46.743Z,1.88
2018-02-18T21:05:12.518Z,1.86
2018-02-18T21:07:38.292Z,1.81
2018-02-18T21:10:04.064Z,1.79
2018-02-18T21:12:29.832Z,1.77
2018-02-18T21:14:55.617Z,1.86
2018-02-18T21:17:21.371Z,1.89
2018-02-18T21:19:47.143Z,1.78
2018-02-18T21:22:12.910Z,1.94
2018-02-18T21:24:38.681Z,1.93
2018-02-18T21:27:04.449Z,1.92
2018-02-18T21:29:30.194Z,1.84
2018-02-18T21:31:55.957Z,1.86
2018-02-18T21:34:21.720Z,1.83
2018-02-18T21:36:47.494Z,1.87
2018-02-18T21:39:13.246Z,1.90
2018-02-18T21:41:39.021Z,1.91
2018-02-18T21:44:04.781Z,1.88
2018-02-18T21:46:30.573Z,1.92
2018-02-18T21:48:56.357Z,1.96
2018-02-18T21:51:22.127Z,1.85
2018-02-18T21:53:47.940Z,1.84
2018-02-18T21:56:13.707Z,1.82
2018-02-18T21:58:39.470Z,1.82
2018-02-18T22:01:05.256Z,1.72
2018-02-18T22:03:31.008Z,1.72
2018-02-18T22:05:56.788Z,1.77
2018-02-18T22:08:22.548Z,1.77
2018-02-18T22:10:48.314Z,1.75
2018-02-18T22:13:14.084Z,1.75
2018-02-18T22:15:39.855Z,1.79
2018-02-18T22:18:05.616Z,1.79
2018-02-18T22:20:31.367Z,1.77
2018-02-18T22:22:57.127Z,1.73
2018-02-18T22:25:22.879Z,1.69
2018-02-18T22:27:48.651Z,1.75
2018-02-18T22:30:14.416Z,1.71
2018-02-18T22:32:40.179Z,1.68
2018-02-18T22:35:05.939Z,1.77
2018-02-18T22:37:31.711Z,1.69
2018-02-18T22:39:57.465Z,1.68
2018-02-18T22:42:23.235Z,1.70
2018-02-18T22:44:48.991Z,1.70
2018-02-18T22:47:14.759Z,1.66
2018-02-18T22:49:40.525Z,1.62
2018-02-18T22:52:06.308Z,1.58
2018-02-18T22:54:32.060Z,1.57
2018-02-18T22:56:57.831Z,1.49
2018-02-18T22:59:23.592Z,1.43
2018-02-18T23:01:49.355Z,1.45
2018-02-18T23:04:15.121Z,1.45
2018-02-18T23:06:40.883Z,1.39
2018-02-18T23:09:06.979Z,1.36
2018-02-18T23:11:33.077Z,1.41
2018-02-18T23:13:58.927Z,1.37
2018-02-18T23:16:24.987Z,1.40
2018-02-18T23:18:51.091Z,1.34
2018-02-18T23:21:16.868Z,1.31
2018-02-18T23:23:42.800Z,1.26
2018-02-18T23:26:08.559Z,1.24
2018-02-18T23:28:34.387Z,1.15
2018-02-18T23:31:00.139Z,1.15
2018-02-18T23:33:25.910Z,1.09
2018-02-18T23:35:51.667Z,1.03
2018-02-18T23:38:17.433Z,1.12
2018-02-18T23:40:43.200Z,1.04
2018-02-18T23:43:08.951Z,1.08
2018-02-18T23:45:34.732Z,1.11
2018-02-18T23:48:00.478Z,1.13
2018-02-18T23:50:26.412Z,1.09
2018-02-18T23:52:52.178Z,1.06
2018-02-18T23:55:17.948Z,1.05
2018-02-18T23:57:43.723Z,1.04
